createdAt,value
2017-11-10T00:00:14.639Z,79.24
2017-11-10T00:01:21.431Z,79.21
2017-11-10T00:02:28.305Z,79.20
2017-11-10T00:03:35.074Z,79.24
2017-11-10T00:04:41.962Z,79.25
2017-11-10T00:05:48.789Z,79.28
2017-11-10T00:06:55.767Z,79.28
2017-11-10T00:08:02.202Z,79.29
2017-11-10T00:09:09.058Z,79.31
2017-11-10T00:10:16.989Z,79.36
2017-11-10T00:11:22.827Z,79.39
2017-11-10T00:12:29.727Z,79.42
2017-11-10T00:13:36.950Z,79.40
2017-11-10T00:14:43.468Z,79.42
2017-11-10T00:15:50.428Z,79.45
2017-11-10T00:16:57.376Z,79.43
2017-11-10T00:18:04.318Z,79.46
2017-11-10T00:19:11.112Z,79.44
2017-11-10T00:20:17.968Z,79.50
2017-11-10T00:21:24.801Z,79.51
2017-11-10T00:22:31.550Z,79.48
2017-11-10T00:23:38.430Z,79.47
2017-11-10T00:24:45.478Z,79.50
2017-11-10T00:25:52.386Z,79.53
2017-11-10T00:26:59.421Z,79.57
2017-11-10T00:28:06.413Z,79.58
2017-11-10T00:29:13.341Z,79.59
2017-11-10T00:30:20.379Z,79.60
2017-11-10T00:31:27.374Z,79.63
2017-11-10T00:32:35.279Z,79.64
2017-11-10T00:33:41.399Z,79.69
2017-11-10T00:34:48.198Z,79.71
2017-11-10T00:35:54.983Z,79.74
2017-11-10T00:37:02.097Z,79.74
2017-11-10T00:38:09.017Z,79.77
2017-11-10T00:39:15.809Z,79.77
2017-11-10T00:40:22.778Z,79.81
2017-11-10T00:41:29.506Z,79.79
2017-11-10T00:42:36.499Z,79.80
2017-11-10T00:43:43.315Z,79.83
2017-11-10T00:44:50.237Z,79.87
2017-11-10T00:45:57.163Z,79.91
2017-11-10T00:47:04.037Z,79.92
2017-11-10T00:48:11.098Z,79.93
2017-11-10T00:49:18.368Z,79.99
2017-11-10T00:50:24.718Z,80.05
2017-11-10T00:51:31.690Z,80.06
2017-11-10T00:52:38.806Z,80.08
2017-11-10T00:53:45.654Z,80.11
2017-11-10T00:54:52.473Z,80.14
2017-11-10T00:55:59.393Z,80.15
2017-11-10T00:57:06.428Z,80.16
2017-11-10T00:58:13.291Z,80.18
2017-11-10T00:59:20.174Z,80.23
2017-11-10T01:00:27.143Z,80.26
2017-11-10T01:01:33.903Z,80.28
2017-11-10T01:02:41.130Z,80.31
2017-11-10T01:03:47.902Z,80.32
2017-11-10T01:04:54.827Z,80.34
2017-11-10T01:06:01.833Z,80.38
2017-11-10T01:07:08.798Z,80.38
2017-11-10T01:08:15.639Z,80.43
2017-11-10T01:09:22.587Z,80.46
2017-11-10T01:10:29.450Z,80.53
2017-11-10T01:11:36.359Z,80.56
2017-11-10T01:12:43.227Z,80.59
2017-11-10T01:13:50.291Z,80.63
2017-11-10T01:14:57.081Z,80.63
2017-11-10T01:16:03.870Z,80.67
2017-11-10T01:17:11.101Z,80.72
2017-11-10T01:18:18.032Z,80.75
2017-11-10T01:19:25.027Z,80.77
2017-11-10T01:20:31.780Z,80.82
2017-11-10T01:21:39.140Z,80.85
2017-11-10T01:22:46.088Z,80.88
2017-11-10T01:23:53.013Z,80.87
2017-11-10T01:24:59.860Z,80.89
2017-11-10T01:26:06.665Z,80.93
2017-11-10T01:27:13.659Z,80.97
2017-11-10T01:28:20.481Z,80.98
2017-11-10T01:29:27.230Z,81.05
2017-11-10T01:30:33.987Z,81.08
2017-11-10T01:31:40.954Z,81.09
2017-11-10T01:32:47.862Z,81.09
2017-11-10T01:33:54.759Z,81.10
2017-11-10T01:35:01.674Z,81.14
2017-11-10T01:36:08.595Z,81.14
2017-11-10T01:37:15.532Z,81.20
2017-11-10T01:38:22.615Z,81.24
2017-11-10T01:39:29.557Z,81.18
2017-11-10T01:40:36.266Z,81.26
2017-11-10T01:41:43.098Z,81.27
2017-11-10T01:42:49.895Z,81.26
2017-11-10T01:43:56.686Z,81.29
2017-11-10T01:45:03.511Z,81.32
2017-11-10T01:46:10.452Z,81.34
2017-11-10T01:47:17.345Z,81.37
2017-11-10T01:48:24.213Z,81.39
2017-11-10T01:49:31.127Z,81.40
2017-11-10T01:50:37.861Z,81.40
2017-11-10T01:51:44.664Z,81.45
2017-11-10T01:52:51.634Z,81.46
2017-11-10T01:53:58.498Z,81.47
2017-11-10T01:55:05.615Z,81.49
2017-11-10T01:56:12.606Z,81.53
2017-11-10T01:57:19.722Z,81.54
2017-11-10T01:58:26.775Z,81.55
2017-11-10T01:59:33.826Z,81.57
2017-11-10T02:00:40.693Z,81.59
2017-11-10T02:01:47.822Z,81.57
2017-11-10T02:02:54.838Z,81.62
2017-11-10T02:04:01.866Z,81.63
2017-11-10T02:05:08.845Z,81.64
2017-11-10T02:06:15.833Z,81.66
2017-11-10T02:07:22.586Z,81.65
2017-11-10T02:08:29.556Z,81.66
2017-11-10T02:09:36.383Z,81.71
2017-11-10T02:10:43.286Z,81.72
2017-11-10T02:11:50.118Z,81.74
2017-11-10T02:12:57.008Z,81.72
2017-11-10T02:14:04.042Z,81.77
2017-11-10T02:15:10.963Z,81.80
2017-11-10T02:16:17.840Z,81.81
2017-11-10T02:17:24.578Z,81.83
2017-11-10T02:18:31.446Z,81.87
2017-11-10T02:19:38.358Z,81.86
2017-11-10T02:20:45.779Z,81.89
2017-11-10T02:21:52.298Z,81.87
2017-11-10T02:22:59.354Z,81.88
2017-11-10T02:24:06.347Z,81.91
2017-11-10T02:25:13.238Z,81.94
2017-11-10T02:26:20.119Z,81.92
2017-11-10T02:27:27.331Z,81.94
2017-11-10T02:28:34.287Z,81.95
2017-11-10T02:29:41.225Z,81.95
2017-11-10T02:30:48.106Z,81.99
2017-11-10T02:31:55.082Z,82.03
2017-11-10T02:33:02.082Z,81.99
2017-11-10T02:34:09.226Z,82.05
2017-11-10T02:35:16.097Z,82.07
2017-11-10T02:36:23.141Z,82.08
2017-11-10T02:37:30.143Z,82.10
2017-11-10T02:38:37.293Z,82.10
2017-11-10T02:39:44.254Z,82.16
2017-11-10T02:40:51.224Z,82.18
2017-11-10T02:41:58.016Z,82.18
2017-11-10T02:43:04.982Z,82.20
2017-11-10T02:44:12.069Z,82.18
2017-11-10T02:45:18.972Z,82.21
2017-11-10T02:46:26.007Z,82.25
2017-11-10T02:47:32.894Z,82.27
2017-11-10T02:48:39.695Z,82.25
2017-11-10T02:49:46.649Z,82.28
2017-11-10T02:50:53.447Z,82.34
2017-11-10T02:52:00.306Z,82.37
2017-11-10T02:53:07.429Z,82.36
2017-11-10T02:54:14.365Z,82.38
2017-11-10T02:55:21.318Z,82.39
2017-11-10T02:56:28.353Z,82.40
2017-11-10T02:58:42.457Z,82.39
2017-11-10T02:59:49.421Z,82.42
2017-11-10T03:00:56.474Z,82.44
2017-11-10T03:02:03.382Z,82.47
2017-11-10T03:03:10.177Z,82.49
2017-11-10T03:04:17.025Z,82.52
2017-11-10T03:05:23.898Z,82.54
2017-11-10T03:06:30.614Z,82.57
2017-11-10T03:07:37.372Z,82.58
2017-11-10T03:08:44.146Z,82.58
2017-11-10T03:09:51.002Z,82.57
2017-11-10T03:10:57.892Z,82.54
2017-11-10T03:12:04.873Z,82.56
2017-11-10T03:13:11.878Z,82.57
2017-11-10T03:14:18.910Z,82.63
2017-11-10T03:15:25.889Z,82.58
2017-11-10T03:16:32.853Z,82.60
2017-11-10T03:17:39.753Z,82.65
2017-11-10T03:18:46.654Z,82.64
2017-11-10T03:19:53.530Z,82.69
2017-11-10T03:21:00.233Z,82.68
2017-11-10T03:22:07.069Z,82.66
2017-11-10T03:23:14.275Z,82.68
2017-11-10T03:24:21.098Z,82.71
2017-11-10T03:25:27.962Z,82.71
2017-11-10T03:26:34.945Z,82.75
2017-11-10T03:27:41.798Z,82.81
2017-11-10T03:28:49.005Z,82.78
2017-11-10T03:29:55.338Z,82.79
2017-11-10T03:31:02.126Z,82.83
2017-11-10T03:32:08.974Z,82.83
2017-11-10T03:33:15.725Z,82.87
2017-11-10T03:34:22.534Z,82.89
2017-11-10T03:35:29.275Z,82.93
2017-11-10T03:36:36.166Z,82.93
2017-11-10T03:37:42.915Z,82.97
2017-11-10T03:38:49.677Z,82.97
2017-11-10T03:39:56.548Z,82.98
2017-11-10T03:41:03.409Z,83.02
2017-11-10T03:42:10.181Z,83.04
2017-11-10T03:43:17.077Z,83.08
2017-11-10T03:44:23.854Z,83.08
2017-11-10T03:45:30.731Z,83.11
2017-11-10T03:46:37.769Z,83.15
2017-11-10T03:47:44.545Z,83.17
2017-11-10T03:48:51.382Z,83.19
2017-11-10T03:49:58.353Z,83.21
2017-11-10T03:51:05.161Z,83.23
2017-11-10T03:52:12.028Z,83.26
2017-11-10T03:53:18.901Z,83.29
2017-11-10T03:54:26.149Z,83.31
2017-11-10T03:55:32.989Z,83.31
2017-11-10T03:56:39.971Z,83.35
2017-11-10T03:57:46.769Z,83.38
2017-11-10T03:58:53.745Z,83.38
2017-11-10T04:00:00.586Z,83.38
2017-11-10T04:01:07.687Z,83.38
2017-11-10T04:02:14.683Z,83.38
2017-11-10T04:03:21.345Z,83.38
2017-11-10T04:04:28.110Z,83.41
2017-11-10T04:05:34.966Z,83.44
2017-11-10T04:06:41.809Z,83.44
2017-11-10T04:07:48.718Z,83.44
2017-11-10T04:08:55.702Z,83.46
2017-11-10T04:10:02.494Z,83.50
2017-11-10T04:11:09.370Z,83.52
2017-11-10T04:12:16.157Z,83.53
2017-11-10T04:13:22.860Z,83.56
2017-11-10T04:14:29.685Z,83.55
2017-11-10T04:15:36.576Z,83.57
2017-11-10T04:16:43.625Z,83.58
2017-11-10T04:17:50.490Z,83.62
2017-11-10T04:18:57.196Z,83.64
2017-11-10T04:20:04.017Z,83.68
2017-11-10T04:21:10.766Z,83.65
2017-11-10T04:22:17.523Z,83.69
2017-11-10T04:23:24.301Z,83.69
2017-11-10T04:24:31.125Z,83.70
2017-11-10T04:25:37.973Z,83.72
2017-11-10T04:26:44.769Z,83.68
2017-11-10T04:27:51.525Z,83.65
2017-11-10T04:28:58.369Z,83.71
2017-11-10T04:30:05.185Z,83.68
2017-11-10T04:31:11.958Z,83.70
2017-11-10T04:32:18.681Z,83.73
2017-11-10T04:33:25.478Z,83.71
2017-11-10T04:34:32.364Z,83.74
2017-11-10T04:35:39.113Z,83.73
2017-11-10T04:36:46.131Z,83.74
2017-11-10T04:37:53.089Z,83.73
2017-11-10T04:38:59.891Z,83.72
2017-11-10T04:40:06.861Z,83.75
2017-11-10T04:41:13.814Z,83.76
2017-11-10T04:42:20.723Z,83.83
2017-11-10T04:43:27.545Z,83.85
2017-11-10T04:44:34.385Z,83.87
2017-11-10T04:45:41.072Z,83.87
2017-11-10T04:46:48.298Z,83.86
2017-11-10T04:47:55.171Z,83.85
2017-11-10T04:49:01.985Z,83.87
2017-11-10T04:50:08.827Z,83.91
2017-11-10T04:51:15.661Z,83.91
2017-11-10T04:52:22.433Z,83.93
2017-11-10T04:53:29.178Z,83.90
2017-11-10T04:54:36.067Z,83.93
2017-11-10T04:55:42.898Z,83.94
2017-11-10T04:56:49.715Z,83.94
2017-11-10T04:57:56.562Z,83.94
2017-11-10T04:59:03.342Z,83.97
2017-11-10T05:00:10.269Z,83.98
2017-11-10T05:01:16.953Z,83.99
2017-11-10T05:02:23.878Z,84.01
2017-11-10T05:03:30.717Z,84.06
2017-11-10T05:04:37.421Z,84.09
2017-11-10T05:05:44.293Z,84.09
2017-11-10T05:06:51.120Z,84.11
2017-11-10T05:07:57.962Z,84.18
2017-11-10T05:09:04.735Z,84.19
2017-11-10T05:10:11.631Z,84.22
2017-11-10T05:11:18.713Z,84.21
2017-11-10T05:12:25.348Z,84.21
2017-11-10T05:13:32.470Z,84.23
2017-11-10T05:14:39.548Z,84.25
2017-11-10T05:15:46.537Z,84.26
2017-11-10T05:16:53.443Z,84.28
2017-11-10T05:18:00.297Z,84.30
2017-11-10T05:19:07.088Z,84.34
2017-11-10T05:20:13.910Z,84.34
2017-11-10T05:21:20.850Z,84.36
2017-11-10T05:22:27.650Z,84.35
2017-11-10T05:23:34.537Z,84.37
2017-11-10T05:24:41.560Z,84.37
2017-11-10T05:25:48.549Z,84.38
2017-11-10T05:26:55.625Z,84.42
2017-11-10T05:28:02.502Z,84.41
2017-11-10T05:29:09.362Z,84.44
2017-11-10T05:30:16.297Z,84.42
2017-11-10T05:31:23.285Z,84.42
2017-11-10T05:32:30.209Z,84.48
2017-11-10T05:33:37.291Z,84.49
2017-11-10T05:34:44.417Z,84.52
2017-11-10T05:35:51.366Z,84.55
2017-11-10T05:36:58.337Z,84.55
2017-11-10T05:38:05.039Z,84.54
2017-11-10T05:39:11.849Z,84.56
2017-11-10T05:40:18.736Z,84.56
2017-11-10T05:41:25.794Z,84.56
2017-11-10T05:42:32.757Z,84.56
2017-11-10T05:43:39.689Z,84.56
2017-11-10T05:44:46.650Z,84.57
2017-11-10T05:45:53.306Z,84.54
2017-11-10T05:47:00.290Z,84.58
2017-11-10T05:48:07.074Z,84.59
2017-11-10T05:49:14.221Z,84.60
2017-11-10T05:50:21.060Z,84.59
2017-11-10T05:51:28.047Z,84.62
2017-11-10T05:52:35.365Z,84.63
2017-11-10T05:53:42.078Z,84.63
2017-11-10T05:54:48.938Z,84.64
2017-11-10T05:55:55.998Z,84.63
2017-11-10T05:57:02.822Z,84.64
2017-11-10T05:58:09.913Z,84.65
2017-11-10T05:59:16.763Z,84.67
2017-11-10T06:00:23.697Z,84.68
2017-11-10T06:01:30.642Z,84.71
2017-11-10T06:02:37.925Z,84.70
2017-11-10T06:03:44.891Z,84.72
2017-11-10T06:04:51.799Z,84.71
2017-11-10T06:05:58.705Z,84.73
2017-11-10T06:07:05.508Z,84.72
2017-11-10T06:08:12.495Z,84.73
2017-11-10T06:09:19.211Z,84.73
2017-11-10T06:10:25.969Z,84.71
2017-11-10T06:11:32.971Z,84.71
2017-11-10T06:12:39.929Z,84.71
2017-11-10T06:13:46.620Z,84.69
2017-11-10T06:14:53.409Z,84.69
2017-11-10T06:16:00.154Z,84.69
2017-11-10T06:17:07.344Z,84.70
2017-11-10T06:18:14.275Z,84.72
2017-11-10T06:19:21.090Z,84.74
2017-11-10T06:20:27.849Z,84.74
2017-11-10T06:21:34.688Z,84.74
2017-11-10T06:22:41.737Z,84.70
2017-11-10T06:23:48.879Z,84.72
2017-11-10T06:24:55.671Z,84.73
2017-11-10T06:26:02.650Z,84.71
2017-11-10T06:27:09.661Z,84.70
2017-11-10T06:28:16.439Z,84.74
2017-11-10T06:29:23.337Z,84.77
2017-11-10T06:30:30.080Z,84.80
2017-11-10T06:31:36.876Z,84.79
2017-11-10T06:32:43.703Z,84.82
2017-11-10T06:33:50.525Z,84.79
2017-11-10T06:34:57.301Z,84.81
2017-11-10T06:36:04.305Z,84.81
2017-11-10T06:37:11.168Z,84.81
2017-11-10T06:38:17.985Z,84.81
2017-11-10T06:39:24.672Z,84.82
2017-11-10T06:40:31.598Z,84.82
2017-11-10T06:41:38.524Z,84.81
2017-11-10T06:42:45.421Z,84.83
2017-11-10T06:43:52.178Z,84.83
2017-11-10T06:44:58.973Z,84.79
2017-11-10T06:46:05.733Z,84.77
2017-11-10T06:47:12.613Z,84.79
2017-11-10T06:48:19.457Z,84.80
2017-11-10T06:49:26.401Z,84.77
2017-11-10T06:50:33.185Z,84.76
2017-11-10T06:51:40.084Z,84.72
2017-11-10T06:52:47.082Z,84.71
2017-11-10T06:53:54.047Z,84.74
2017-11-10T06:55:00.758Z,84.71
2017-11-10T06:56:07.621Z,84.71
2017-11-10T06:57:14.555Z,84.69
2017-11-10T06:58:21.516Z,84.69
2017-11-10T06:59:28.337Z,84.69
2017-11-10T07:00:35.072Z,84.70
2017-11-10T07:01:42.213Z,84.68
2017-11-10T07:02:49.181Z,84.67
2017-11-10T07:03:55.982Z,84.66
2017-11-10T07:05:02.848Z,84.64
2017-11-10T07:06:09.770Z,84.62
2017-11-10T07:07:16.850Z,84.62
2017-11-10T07:08:23.715Z,84.62
2017-11-10T07:09:30.550Z,84.61
2017-11-10T07:10:37.367Z,84.61
2017-11-10T07:11:44.410Z,84.59
2017-11-10T07:12:51.437Z,84.61
2017-11-10T07:13:58.526Z,84.60
2017-11-10T07:15:05.310Z,84.57
2017-11-10T07:16:12.182Z,84.58
2017-11-10T07:17:18.925Z,84.61
2017-11-10T07:18:25.818Z,84.58
2017-11-10T07:19:32.588Z,84.57
2017-11-10T07:20:39.589Z,84.58
2017-11-10T07:21:46.483Z,84.59
2017-11-10T07:22:53.053Z,84.59
2017-11-10T07:23:59.862Z,84.60
2017-11-10T07:25:06.701Z,84.61
2017-11-10T07:26:13.473Z,84.61
2017-11-10T07:27:20.278Z,84.59
2017-11-10T07:28:27.133Z,84.59
2017-11-10T07:29:34.029Z,84.58
2017-11-10T07:30:41.048Z,84.60
2017-11-10T07:31:48.061Z,84.58
2017-11-10T07:32:55.041Z,84.63
2017-11-10T07:34:01.803Z,84.64
2017-11-10T07:35:08.944Z,84.63
2017-11-10T07:36:15.674Z,84.62
2017-11-10T07:37:22.498Z,84.63
2017-11-10T07:38:29.313Z,84.62
2017-11-10T07:39:36.294Z,84.61
2017-11-10T07:40:43.103Z,84.66
2017-11-10T07:41:49.858Z,84.66
2017-11-10T07:42:56.620Z,84.67
2017-11-10T07:44:03.571Z,84.67
2017-11-10T07:45:10.586Z,84.71
2017-11-10T07:46:17.422Z,84.71
2017-11-10T07:47:24.399Z,84.73
2017-11-10T07:48:31.494Z,84.71
2017-11-10T07:49:38.518Z,84.72
2017-11-10T07:50:45.563Z,84.72
2017-11-10T07:51:52.857Z,84.74
2017-11-10T07:52:59.379Z,84.77
2017-11-10T07:54:05.940Z,84.80
2017-11-10T07:55:12.899Z,84.77
2017-11-10T07:56:19.905Z,84.76
2017-11-10T07:57:26.907Z,84.76
2017-11-10T07:58:33.919Z,84.75
2017-11-10T07:59:40.475Z,84.74
2017-11-10T08:00:47.409Z,84.73
2017-11-10T08:01:54.143Z,84.75
2017-11-10T08:03:01.110Z,84.75
2017-11-10T08:04:07.951Z,84.75
2017-11-10T08:05:14.706Z,84.76
2017-11-10T08:06:21.476Z,84.76
2017-11-10T08:07:28.262Z,84.77
2017-11-10T08:08:35.161Z,84.78
2017-11-10T08:09:41.974Z,84.81
2017-11-10T08:10:48.913Z,84.79
2017-11-10T08:11:55.803Z,84.82
2017-11-10T08:13:03.147Z,84.86
2017-11-10T08:14:09.506Z,84.90
2017-11-10T08:15:16.325Z,84.90
2017-11-10T08:16:23.295Z,84.90
2017-11-10T08:17:30.173Z,84.90
2017-11-10T08:18:37.189Z,84.90
2017-11-10T08:19:44.024Z,84.92
2017-11-10T08:20:50.796Z,84.93
2017-11-10T08:21:57.913Z,84.95
2017-11-10T08:23:04.787Z,84.95
2017-11-10T08:24:11.778Z,84.94
2017-11-10T08:25:18.640Z,84.99
2017-11-10T08:26:25.741Z,84.96
2017-11-10T08:27:32.749Z,84.96
2017-11-10T08:28:39.706Z,84.98
2017-11-10T08:29:46.688Z,84.98
2017-11-10T08:30:53.702Z,85.02
2017-11-10T08:32:00.489Z,84.99
2017-11-10T08:33:07.443Z,85.00
2017-11-10T08:34:14.451Z,85.01
2017-11-10T08:35:21.205Z,85.02
2017-11-10T08:36:28.222Z,85.02
2017-11-10T08:37:35.251Z,85.04
2017-11-10T08:38:42.263Z,85.03
2017-11-10T08:39:49.194Z,85.06
2017-11-10T08:40:56.154Z,85.08
2017-11-10T08:42:02.918Z,85.07
2017-11-10T08:43:09.795Z,85.04
2017-11-10T08:44:16.620Z,85.08
2017-11-10T08:45:23.402Z,85.05
2017-11-10T08:46:30.295Z,85.07
2017-11-10T08:47:37.157Z,85.05
2017-11-10T08:48:43.971Z,85.08
2017-11-10T08:49:51.066Z,85.07
2017-11-10T08:50:58.084Z,85.08
2017-11-10T08:52:04.924Z,85.11
2017-11-10T08:53:11.918Z,85.10
2017-11-10T08:54:18.796Z,85.17
2017-11-10T08:55:25.513Z,85.26
2017-11-10T08:56:32.402Z,85.29
2017-11-10T08:57:39.224Z,85.28
2017-11-10T08:58:45.969Z,85.33
2017-11-10T08:59:52.770Z,85.31
2017-11-10T09:00:59.790Z,85.28
2017-11-10T09:02:06.701Z,85.32
2017-11-10T09:03:13.502Z,85.28
2017-11-10T09:04:20.407Z,85.30
2017-11-10T09:05:27.547Z,85.31
2017-11-10T09:06:34.407Z,85.32
2017-11-10T09:07:41.283Z,85.31
2017-11-10T09:08:48.012Z,85.31
2017-11-10T09:09:54.937Z,85.33
2017-11-10T09:11:01.787Z,85.29
2017-11-10T09:12:08.617Z,85.29
2017-11-10T09:13:15.538Z,85.28
2017-11-10T09:14:22.381Z,85.30
2017-11-10T09:15:29.411Z,85.28
2017-11-10T09:16:36.121Z,85.28
2017-11-10T09:17:42.933Z,85.29
2017-11-10T09:18:49.742Z,85.29
2017-11-10T09:19:56.720Z,85.35
2017-11-10T09:21:03.927Z,85.31
2017-11-10T09:22:10.884Z,85.33
2017-11-10T09:23:17.984Z,85.33
2017-11-10T09:24:24.837Z,85.35
2017-11-10T09:25:31.600Z,85.36
2017-11-10T09:26:38.678Z,85.36
2017-11-10T09:27:45.690Z,85.35
2017-11-10T09:28:52.904Z,85.34
2017-11-10T09:30:00.070Z,85.34
2017-11-10T09:31:07.049Z,85.35
2017-11-10T09:32:13.916Z,85.35
2017-11-10T09:33:20.905Z,85.37
2017-11-10T09:34:27.835Z,85.40
2017-11-10T09:35:34.800Z,85.40
2017-11-10T09:36:41.733Z,85.42
2017-11-10T09:37:48.538Z,85.43
2017-11-10T09:38:55.933Z,85.43
2017-11-10T09:40:02.812Z,85.42
2017-11-10T09:41:09.870Z,85.42
2017-11-10T09:42:16.822Z,85.42
2017-11-10T09:43:23.785Z,85.40
2017-11-10T09:44:30.849Z,85.37
2017-11-10T09:45:37.954Z,85.37
2017-11-10T09:46:44.954Z,85.39
2017-11-10T09:47:51.858Z,85.39
2017-11-10T09:48:58.716Z,85.41
2017-11-10T09:50:05.638Z,85.41
2017-11-10T09:51:12.634Z,85.41
2017-11-10T09:52:19.661Z,85.43
2017-11-10T09:53:26.690Z,85.44
2017-11-10T09:54:33.506Z,85.48
2017-11-10T09:55:40.408Z,85.47
2017-11-10T09:56:47.434Z,85.46
2017-11-10T09:57:54.375Z,85.49
2017-11-10T09:59:01.467Z,85.50
2017-11-10T10:00:08.390Z,85.51
2017-11-10T10:01:15.586Z,85.48
2017-11-10T10:02:22.139Z,85.51
2017-11-10T10:03:29.086Z,85.52
2017-11-10T10:04:35.994Z,85.52
2017-11-10T10:05:43.111Z,85.53
2017-11-10T10:06:50.125Z,85.54
2017-11-10T10:07:56.989Z,85.54
2017-11-10T10:09:03.982Z,85.55
2017-11-10T10:10:11.042Z,85.58
2017-11-10T10:11:18.074Z,85.56
2017-11-10T10:12:25.123Z,85.56
2017-11-10T10:13:31.933Z,85.57
2017-11-10T10:14:39.027Z,85.59
2017-11-10T10:15:45.981Z,85.58
2017-11-10T10:16:53.049Z,85.60
2017-11-10T10:18:00.141Z,85.58
2017-11-10T10:19:07.046Z,85.61
2017-11-10T10:20:13.878Z,85.63
2017-11-10T10:21:20.813Z,85.65
2017-11-10T10:22:27.804Z,85.68
2017-11-10T10:23:34.651Z,85.72
2017-11-10T10:24:41.726Z,85.76
2017-11-10T10:25:48.598Z,85.74
2017-11-10T10:26:55.640Z,85.76
2017-11-10T10:28:02.583Z,85.79
2017-11-10T10:29:09.362Z,85.78
2017-11-10T10:30:16.354Z,85.79
2017-11-10T10:31:23.187Z,85.81
2017-11-10T10:32:30.098Z,85.79
2017-11-10T10:33:36.990Z,85.81
2017-11-10T10:34:44.045Z,85.84
2017-11-10T10:35:50.986Z,85.86
2017-11-10T10:36:57.967Z,85.87
2017-11-10T10:38:04.969Z,85.87
2017-11-10T10:39:11.986Z,85.86
2017-11-10T10:40:18.950Z,85.83
2017-11-10T10:41:25.710Z,85.81
2017-11-10T10:42:32.700Z,85.82
2017-11-10T10:43:39.517Z,85.80
2017-11-10T10:44:46.517Z,85.80
2017-11-10T10:45:53.334Z,85.80
2017-11-10T10:47:00.218Z,85.85
2017-11-10T10:48:07.019Z,85.82
2017-11-10T10:49:13.870Z,85.87
2017-11-10T10:50:20.769Z,85.88
2017-11-10T10:51:27.705Z,85.88
2017-11-10T10:53:41.661Z,85.89
2017-11-10T10:54:48.500Z,85.89
2017-11-10T10:55:55.234Z,85.90
2017-11-10T10:57:02.109Z,85.94
2017-11-10T10:58:08.934Z,85.95
2017-11-10T10:59:15.730Z,85.96
2017-11-10T11:00:22.722Z,85.96
2017-11-10T11:01:29.593Z,85.98
2017-11-10T11:02:36.562Z,85.95
2017-11-10T11:03:43.362Z,85.96
2017-11-10T11:04:50.098Z,85.99
2017-11-10T11:05:57.102Z,86.01
2017-11-10T11:07:04.053Z,86.04
2017-11-10T11:08:10.839Z,86.10
2017-11-10T11:09:17.847Z,86.12
2017-11-10T11:10:24.805Z,86.15
2017-11-10T11:11:32.026Z,86.15
2017-11-10T11:12:38.916Z,86.16
2017-11-10T11:13:45.680Z,86.17
2017-11-10T11:14:52.477Z,86.20
2017-11-10T11:15:59.411Z,86.21
2017-11-10T11:17:06.195Z,86.25
2017-11-10T11:18:12.977Z,86.30
2017-11-10T11:19:19.886Z,86.36
2017-11-10T11:20:26.610Z,86.37
2017-11-10T11:21:33.346Z,86.40
2017-11-10T11:22:40.420Z,86.43
2017-11-10T11:23:47.281Z,86.41
2017-11-10T11:24:54.319Z,86.44
2017-11-10T11:26:01.179Z,86.50
2017-11-10T11:27:08.192Z,86.51
2017-11-10T11:28:15.258Z,86.53
2017-11-10T11:29:22.133Z,86.56
2017-11-10T11:30:28.926Z,86.57
2017-11-10T11:31:35.738Z,86.61
2017-11-10T11:32:42.735Z,86.62
2017-11-10T11:33:49.698Z,86.63
2017-11-10T11:34:56.480Z,86.65
2017-11-10T11:36:03.274Z,86.68
2017-11-10T11:37:10.116Z,86.68
2017-11-10T11:38:17.445Z,86.72
2017-11-10T11:39:24.083Z,86.76
2017-11-10T11:40:31.046Z,86.80
2017-11-10T11:41:38.034Z,86.84
2017-11-10T11:42:44.818Z,86.86
2017-11-10T11:43:51.599Z,86.89
2017-11-10T11:44:58.657Z,86.90
2017-11-10T11:46:05.691Z,86.91
2017-11-10T11:47:13.559Z,86.94
2017-11-10T11:48:19.566Z,86.95
2017-11-10T11:49:26.329Z,87.00
2017-11-10T11:50:33.238Z,87.03
2017-11-10T11:51:40.086Z,87.04
2017-11-10T11:52:47.192Z,87.08
2017-11-10T11:53:54.265Z,87.12
2017-11-10T11:55:01.100Z,87.15
2017-11-10T11:56:08.015Z,87.15
2017-11-10T11:57:14.954Z,87.18
2017-11-10T11:58:21.889Z,87.22
2017-11-10T11:59:28.947Z,87.25
2017-11-10T12:00:35.510Z,87.26
2017-11-10T12:01:42.507Z,87.27
2017-11-10T12:02:49.557Z,87.30
2017-11-10T12:03:56.561Z,87.33
2017-11-10T12:05:03.357Z,87.37
2017-11-10T12:06:10.426Z,87.39
2017-11-10T12:07:17.164Z,87.42
2017-11-10T12:08:23.898Z,87.49
2017-11-10T12:09:30.838Z,87.53
2017-11-10T12:10:37.891Z,87.56
2017-11-10T12:11:44.777Z,87.61
2017-11-10T12:12:51.870Z,87.64
2017-11-10T12:13:58.701Z,87.65
2017-11-10T12:15:05.649Z,87.68
2017-11-10T12:16:12.511Z,87.73
2017-11-10T12:17:19.513Z,87.73
2017-11-10T12:18:26.410Z,87.77
2017-11-10T12:19:33.385Z,87.81
2017-11-10T12:20:40.307Z,87.80
2017-11-10T12:21:47.501Z,87.82
2017-11-10T12:22:54.654Z,87.86
2017-11-10T12:24:01.666Z,87.88
2017-11-10T12:25:08.674Z,87.88
2017-11-10T12:26:15.751Z,87.92
2017-11-10T12:27:22.567Z,87.93
2017-11-10T12:28:29.345Z,87.92
2017-11-10T12:29:36.239Z,87.94
2017-11-10T12:30:43.206Z,87.95
2017-11-10T12:31:50.146Z,87.99
2017-11-10T12:32:56.919Z,87.98
2017-11-10T12:34:03.763Z,87.97
2017-11-10T12:35:10.762Z,87.96
2017-11-10T12:36:17.726Z,87.98
2017-11-10T12:37:24.598Z,87.99
2017-11-10T12:38:31.681Z,88.00
2017-11-10T12:39:39.651Z,88.04
2017-11-10T12:40:45.519Z,88.06
2017-11-10T12:41:52.602Z,88.09
2017-11-10T12:42:59.383Z,88.12
2017-11-10T12:44:06.362Z,88.10
2017-11-10T12:45:13.401Z,88.15
2017-11-10T12:46:20.427Z,88.19
2017-11-10T12:47:27.490Z,88.22
2017-11-10T12:48:34.346Z,88.21
2017-11-10T12:49:41.447Z,88.25
2017-11-10T12:50:48.495Z,88.28
2017-11-10T12:51:55.317Z,88.30
2017-11-10T12:53:02.221Z,88.34
2017-11-10T12:54:09.118Z,88.36
2017-11-10T12:55:15.942Z,88.41
2017-11-10T12:56:22.930Z,88.48
2017-11-10T12:57:29.931Z,88.51
2017-11-10T12:58:36.971Z,88.54
2017-11-10T12:59:43.906Z,88.57
2017-11-10T13:00:50.850Z,88.60
2017-11-10T13:01:57.725Z,88.63
2017-11-10T13:03:04.621Z,88.66
2017-11-10T13:04:11.375Z,88.69
2017-11-10T13:05:18.158Z,88.74
2017-11-10T13:06:25.006Z,88.80
2017-11-10T13:07:31.819Z,88.84
2017-11-10T13:08:38.579Z,88.88
2017-11-10T13:09:45.404Z,88.91
2017-11-10T13:10:52.304Z,88.94
2017-11-10T13:11:59.265Z,88.94
2017-11-10T13:13:06.212Z,89.00
2017-11-10T13:14:12.990Z,89.02
2017-11-10T13:15:20.085Z,89.02
2017-11-10T13:16:27.051Z,89.04
2017-11-10T13:17:34.018Z,89.03
2017-11-10T13:18:40.854Z,89.09
2017-11-10T13:19:47.884Z,89.08
2017-11-10T13:20:54.962Z,89.13
2017-11-10T13:22:01.865Z,89.14
2017-11-10T13:23:08.654Z,89.13
2017-11-10T13:24:15.570Z,89.13
2017-11-10T13:25:22.573Z,89.13
2017-11-10T13:26:29.486Z,89.14
2017-11-10T13:27:36.235Z,89.16
2017-11-10T13:28:42.972Z,89.18
2017-11-10T13:29:49.735Z,89.18
2017-11-10T13:30:56.582Z,89.17
2017-11-10T13:32:03.417Z,89.20
2017-11-10T13:33:10.148Z,89.20
2017-11-10T13:34:16.947Z,89.22
2017-11-10T13:35:23.854Z,89.24
2017-11-10T13:36:30.782Z,89.25
2017-11-10T13:37:37.630Z,89.26
2017-11-10T13:38:44.458Z,89.27
2017-11-10T13:39:51.147Z,89.29
2017-11-10T13:40:57.873Z,89.31
2017-11-10T13:42:04.671Z,89.32
2017-11-10T13:43:11.562Z,89.30
2017-11-10T13:44:18.282Z,89.33
2017-11-10T13:45:25.201Z,89.34
2017-11-10T13:46:32.000Z,89.40
2017-11-10T13:47:38.766Z,89.39
2017-11-10T13:48:45.607Z,89.43
2017-11-10T13:49:52.338Z,89.44
2017-11-10T13:50:59.210Z,89.50
2017-11-10T13:52:06.023Z,89.52
2017-11-10T13:53:12.778Z,89.53
2017-11-10T13:54:19.442Z,89.54
2017-11-10T13:55:26.697Z,89.58
2017-11-10T13:56:33.566Z,89.60
2017-11-10T13:57:40.551Z,89.62
2017-11-10T13:58:47.278Z,89.64
2017-11-10T13:59:54.053Z,89.69
2017-11-10T14:01:00.743Z,89.70
2017-11-10T14:02:07.581Z,89.70
2017-11-10T14:03:14.420Z,89.74
2017-11-10T14:04:21.107Z,89.77
2017-11-10T14:05:27.862Z,89.79
2017-11-10T14:06:34.610Z,89.85
2017-11-10T14:07:41.426Z,89.90
2017-11-10T14:08:48.376Z,89.86
2017-11-10T14:09:55.142Z,89.90
2017-11-10T14:11:01.958Z,89.92
2017-11-10T14:12:08.774Z,89.91
2017-11-10T14:13:15.948Z,89.92
2017-11-10T14:14:22.834Z,89.95
2017-11-10T14:15:29.753Z,89.94
2017-11-10T14:16:36.626Z,89.91
2017-11-10T14:17:43.696Z,89.93
2017-11-10T14:18:50.386Z,89.90
2017-11-10T14:19:57.331Z,89.95
2017-11-10T14:21:04.114Z,89.92
2017-11-10T14:22:11.082Z,89.94
2017-11-10T14:23:18.294Z,89.92